Time;durP1;ratioP1;P1;durP2;ratioP2;P2;SDS_P1;SDS_P2;PMS_P1;PMS_P2;Temp;Humidity;BMP_temperature;BMP_pressure;BME280_temperature;BME280_humidity;BME280_pressure;Samples;Min_cycle;Max_cycle;Signal;HPM_P1;HPM_P2
2022/01/10 00:00:46;;;;;;;3.85;1.88;;;1.80;93.40;;;;;;4992476;28;20523;-81
2022/01/10 00:03:12;;;;;;;3.08;1.67;;;1.80;93.40;;;;;;4995536;28;20092;-81
2022/01/10 00:05:37;;;;;;;3.78;1.85;;;1.80;93.40;;;;;;5002477;28;20042;-81
2022/01/10 00:08:04;;;;;;;6.22;2.78;;;1.80;93.40;;;;;;4999867;28;20058;-81
2022/01/10 00:10:33;;;;;;;5.60;1.85;;;1.80;93.50;;;;;;4992837;28;20045;-81
2022/01/10 00:12:59;;;;;;;4.13;1.90;;;1.80;93.50;;;;;;4974025;28;20049;-81
2022/01/10 00:15:24;;;;;;;3.92;1.75;;;1.80;93.50;;;;;;4994443;28;20326;-81
2022/01/10 00:17:50;;;;;;;4.43;1.80;;;1.80;93.50;;;;;;5001350;28;20046;-81
2022/01/10 00:20:16;;;;;;;10.82;2.30;;;1.80;93.50;;;;;;4991891;28;20034;-81
2022/01/10 00:22:46;;;;;;;2.88;1.63;;;1.80;93.50;;;;;;4998715;28;20049;-81
2022/01/10 00:25:12;;;;;;;3.03;1.90;;;1.80;93.50;;;;;;5005886;28;20125;-81
2022/01/10 00:27:38;;;;;;;7.78;2.58;;;1.80;93.50;;;;;;4976997;28;20096;-81
2022/01/10 00:30:04;;;;;;;8.25;3.35;;;1.80;93.50;;;;;;4979378;28;20172;-81
2022/01/10 00:32:29;;;;;;;8.43;4.38;;;1.80;93.50;;;;;;5003444;28;20519;-81
2022/01/10 00:34:55;;;;;;;5.63;3.97;;;1.80;93.50;;;;;;4986038;28;20046;-81
2022/01/10 00:37:20;;;;;;;9.52;3.90;;;1.80;93.50;;;;;;4977226;28;20088;-81
2022/01/10 00:39:49;;;;;;;11.25;4.85;;;1.80;93.50;;;;;;5002527;28;20058;-81
2022/01/10 00:42:15;;;;;;;8.15;3.53;;;1.80;93.50;;;;;;5000896;28;20026;-81
2022/01/10 00:44:46;;;;;;;7.35;2.92;;;1.90;93.60;;;;;;4999628;28;20667;-81
2022/01/10 00:47:11;;;;;;;6.32;2.83;;;1.80;93.50;;;;;;5010333;28;20049;-81
2022/01/10 00:49:37;;;;;;;4.55;2.13;;;1.80;93.50;;;;;;5006678;28;20037;-81
2022/01/10 00:52:03;;;;;;;4.90;2.72;;;1.80;93.50;;;;;;5005601;28;20055;-81
2022/01/10 00:54:29;;;;;;;4.65;2.58;;;1.80;93.50;;;;;;5012943;28;20423;-82
2022/01/10 00:56:54;;;;;;;4.35;2.92;;;1.80;93.50;;;;;;4996682;28;20071;-81
2022/01/10 00:59:20;;;;;;;5.07;2.63;;;1.80;93.50;;;;;;5006247;28;20045;-82
2022/01/10 01:01:45;;;;;;;5.93;2.35;;;1.80;93.60;;;;;;5002540;28;20034;-81
2022/01/10 01:04:12;;;;;;;4.45;2.17;;;1.80;93.60;;;;;;4989133;28;20030;-81
2022/01/10 01:06:37;;;;;;;3.55;2.20;;;1.80;93.60;;;;;;4998325;28;20038;-81
2022/01/10 01:09:07;;;;;;;4.03;2.13;;;1.80;93.60;;;;;;4978906;28;20168;-81
2022/01/10 01:12:07;;;;;;;4.45;2.17;;;1.80;93.60;;;;;;5017362;28;20243;-81
2022/01/10 01:17:12;;;;;;;2.75;2.25;;;1.80;93.60;;;;;;4998575;28;20077;-81
2022/01/10 01:25:06;;;;;;;7.20;1.92;;;1.80;93.60;;;;;;5006448;28;20582;-82
2022/01/10 01:27:32;;;;;;;4.63;1.92;;;1.80;93.60;;;;;;5015976;28;20049;-81
2022/01/10 01:29:57;;;;;;;5.40;1.92;;;1.80;93.60;;;;;;5012741;28;20050;-82
2022/01/10 01:32:23;;;;;;;3.13;1.90;;;1.80;93.60;;;;;;5002948;28;20054;-82
2022/01/10 01:34:49;;;;;;;3.88;1.90;;;1.80;93.60;;;;;;5007750;28;20041;-81
2022/01/10 01:37:15;;;;;;;2.90;2.05;;;1.80;93.60;;;;;;4997757;28;20104;-81
2022/01/10 01:39:40;;;;;;;4.10;2.20;;;1.80;93.60;;;;;;4970967;28;20523;-81
2022/01/10 01:42:29;;;;;;;5.22;2.10;;;1.80;93.60;;;;;;5009899;28;20890;-82
2022/01/10 01:44:51;;;;;;;3.85;1.88;;;1.80;93.60;;;;;;4994870;28;20049;-82
2022/01/10 01:47:17;;;;;;;6.10;2.38;;;1.80;93.60;;;;;;5003573;28;20088;-81
2022/01/10 01:49:43;;;;;;;2.97;2.10;;;1.80;93.60;;;;;;4989160;28;20050;-81
2022/01/10 01:52:08;;;;;;;5.80;2.40;;;1.80;93.60;;;;;;4997105;28;20037;-81
2022/01/10 01:54:34;;;;;;;5.13;2.30;;;1.80;93.60;;;;;;5007641;28;20045;-81
2022/01/10 01:56:59;;;;;;;3.83;2.20;;;1.90;93.70;;;;;;4985498;28;20045;-81
2022/01/10 01:59:25;;;;;;;5.70;2.28;;;1.90;93.70;;;;;;4987052;28;20025;-82
2022/01/10 02:01:50;;;;;;;6.28;2.80;;;1.80;93.60;;;;;;5008299;28;20069;-81
2022/01/10 02:04:16;;;;;;;5.50;2.67;;;1.80;93.70;;;;;;5003236;28;20783;-81
2022/01/10 02:06:41;;;;;;;9.20;3.10;;;1.80;93.70;;;;;;4984039;28;20423;-81
2022/01/10 02:09:07;;;;;;;6.70;3.40;;;1.80;93.70;;;;;;4976764;28;20688;-81
2022/01/10 02:11:32;;;;;;;6.45;3.20;;;1.80;93.70;;;;;;4984335;28;20025;-81
2022/01/10 02:13:59;;;;;;;7.18;3.72;;;1.80;93.70;;;;;;5020897;28;20080;-81
2022/01/10 02:16:34;;;;;;;10.85;4.25;;;1.80;93.70;;;;;;5007955;28;20029;-81
2022/01/10 02:18:59;;;;;;;7.45;3.05;;;1.90;93.70;;;;;;4976698;28;20037;-81
2022/01/10 02:21:25;;;;;;;6.18;2.70;;;1.80;93.70;;;;;;4977931;28;20026;-81
2022/01/10 02:23:50;;;;;;;8.70;3.47;;;1.80;93.70;;;;;;4999091;28;20369;-81
2022/01/10 02:26:16;;;;;;;5.22;2.97;;;1.80;93.70;;;;;;5000894;28;20499;-81
2022/01/10 02:28:42;;;;;;;5.30;2.70;;;1.80;93.70;;;;;;4978451;28;20037;-81
2022/01/10 02:31:07;;;;;;;6.78;3.00;;;1.80;93.70;;;;;;4994938;28;20037;-81
2022/01/10 02:33:33;;;;;;;8.68;3.25;;;1.80;93.70;;;;;;4995271;28;20112;-81
2022/01/10 02:38:28;;;;;;;10.00;3.72;;;1.80;93.70;;;;;;4996582;28;20037;-82
2022/01/10 02:40:54;;;;;;;6.05;3.50;;;1.80;93.70;;;;;;5020302;28;20034;-82
2022/01/10 02:43:20;;;;;;;6.90;3.40;;;1.80;93.70;;;;;;4986440;28;20041;-82
2022/01/10 02:45:46;;;;;;;7.28;2.88;;;1.80;93.70;;;;;;4988002;28;20038;-82
2022/01/10 02:48:12;;;;;;;7.75;3.30;;;1.80;93.70;;;;;;5011875;28;20072;-82
2022/01/10 02:50:37;;;;;;;5.93;3.42;;;1.80;93.90;;;;;;4974212;28;20033;-82
2022/01/10 02:53:03;;;;;;;4.30;2.90;;;1.80;93.70;;;;;;4988771;28;20125;-81
2022/01/10 02:55:28;;;;;;;6.53;3.15;;;1.80;93.70;;;;;;4975082;28;20042;-81
2022/01/10 02:57:54;;;;;;;4.57;2.97;;;1.80;93.70;;;;;;4983333;28;20124;-82
2022/01/10 03:00:21;;;;;;;7.50;3.35;;;1.80;93.70;;;;;;4974834;28;20620;-81
2022/01/10 03:02:52;;;;;;;6.88;3.22;;;1.80;93.70;;;;;;4996833;28;20037;-82
2022/01/10 03:05:18;;;;;;;7.73;3.00;;;1.80;93.70;;;;;;5009494;28;20089;-81
2022/01/10 03:07:44;;;;;;;6.75;2.90;;;1.80;93.70;;;;;;4982280;28;20300;-81
2022/01/10 03:10:10;;;;;;;3.50;2.78;;;1.80;93.70;;;;;;4989068;28;20065;-81
2022/01/10 03:12:36;;;;;;;4.93;2.83;;;1.80;93.80;;;;;;5004796;28;20061;-81
2022/01/10 03:15:03;;;;;;;5.43;2.80;;;1.80;93.70;;;;;;5000005;28;20042;-81
2022/01/10 03:17:28;;;;;;;6.93;2.83;;;1.80;93.70;;;;;;5002000;28;20714;-82
2022/01/10 03:19:54;;;;;;;7.20;3.17;;;1.80;93.70;;;;;;4988622;28;20658;-82
2022/01/10 03:22:19;;;;;;;8.38;3.25;;;1.80;93.70;;;;;;4997467;28;20122;-81
2022/01/10 03:24:45;;;;;;;3.35;2.45;;;1.80;93.70;;;;;;5007210;28;20041;-81
2022/01/10 03:27:10;;;;;;;3.38;2.58;;;1.70;93.70;;;;;;4998817;28;20041;-82
2022/01/10 03:29:36;;;;;;;3.95;2.50;;;1.70;93.70;;;;;;4987703;28;20030;-82
2022/01/10 03:32:02;;;;;;;7.75;3.05;;;1.70;93.70;;;;;;4987518;28;20034;-81
2022/01/10 03:34:28;;;;;;;5.57;3.20;;;1.70;93.70;;;;;;5004006;28;20181;-81
2022/01/10 03:36:54;;;;;;;4.07;2.67;;;1.70;93.70;;;;;;4989684;28;20840;-81
2022/01/10 03:39:19;;;;;;;5.15;2.90;;;1.70;93.70;;;;;;5009518;28;20038;-81
2022/01/10 03:41:45;;;;;;;6.65;2.83;;;1.70;93.70;;;;;;5007635;28;20719;-82
2022/01/10 03:44:10;;;;;;;6.93;3.40;;;1.70;93.70;;;;;;5003311;28;20037;-81
2022/01/10 03:46:36;;;;;;;4.40;2.83;;;1.70;93.70;;;;;;5003335;28;20030;-82
2022/01/10 03:49:02;;;;;;;5.65;3.15;;;1.60;93.60;;;;;;4983713;28;20030;-82
2022/01/10 03:51:27;;;;;;;5.20;2.75;;;1.60;93.60;;;;;;4994164;28;20045;-81
2022/01/10 03:53:53;;;;;;;5.93;3.67;;;1.60;93.60;;;;;;4989052;28;20026;-82
2022/01/10 03:56:19;;;;;;;5.70;3.85;;;1.60;93.60;;;;;;5009383;28;20864;-81
2022/01/10 03:58:44;;;;;;;13.77;4.03;;;1.60;93.60;;;;;;4989631;28;20261;-81
2022/01/10 04:01:12;;;;;;;11.43;3.85;;;1.60;93.70;;;;;;5005948;28;20084;-81
2022/01/10 04:03:38;;;;;;;48.20;6.50;;;1.60;93.90;;;;;;5010223;28;20038;-82
2022/01/10 04:06:03;;;;;;;4.85;3.25;;;1.60;93.70;;;;;;5006833;28;20113;-82
2022/01/10 04:08:29;;;;;;;31.48;6.30;;;1.60;93.70;;;;;;4986588;28;20113;-81
2022/01/10 04:10:55;;;;;;;56.22;7.65;;;1.50;93.70;;;;;;4997270;28;20096;-82
2022/01/10 04:13:20;;;;;;;83.70;7.03;;;1.60;93.70;;;;;;5002348;28;20030;-81
2022/01/10 04:15:46;;;;;;;21.52;4.28;;;1.60;93.70;;;;;;5001003;28;20033;-82
2022/01/10 04:18:11;;;;;;;71.68;7.22;;;1.60;93.70;;;;;;5007943;28;20099;-82
2022/01/10 04:20:37;;;;;;;14.43;5.32;;;1.60;93.80;;;;;;5007314;28;20045;-82
2022/01/10 04:23:02;;;;;;;47.33;6.85;;;1.50;93.70;;;;;;4996155;28;20105;-81
2022/01/10 04:25:28;;;;;;;23.88;5.35;;;1.50;93.70;;;;;;5001977;28;20041;-81
2022/01/10 04:27:53;;;;;;;24.98;5.68;;;1.50;93.70;;;;;;4996657;28;20118;-81
2022/01/10 04:30:19;;;;;;;44.60;6.88;;;1.50;93.80;;;;;;5017803;28;20041;-81
2022/01/10 04:32:45;;;;;;;19.63;5.07;;;1.50;93.80;;;;;;4962086;28;20097;-82
2022/01/10 04:35:10;;;;;;;22.15;5.22;;;1.50;93.80;;;;;;4998245;28;20141;-82
2022/01/10 04:37:36;;;;;;;17.27;4.50;;;1.50;93.80;;;;;;5009444;28;20030;-82
2022/01/10 04:40:03;;;;;;;9.85;5.90;;;1.50;93.80;;;;;;4981810;28;20041;-82
2022/01/10 04:42:28;;;;;;;8.80;5.40;;;1.50;93.80;;;;;;4976590;28;20096;-82
2022/01/10 04:44:54;;;;;;;23.98;11.07;;;1.50;93.80;;;;;;4968662;28;20089;-82
2022/01/10 04:47:19;;;;;;;27.00;11.75;;;1.50;93.80;;;;;;4999673;28;20045;-82
2022/01/10 04:52:23;;;;;;;30.13;12.18;;;1.50;93.80;;;;;;4995434;28;20470;-82
2022/01/10 04:54:48;;;;;;;29.80;12.40;;;1.50;93.80;;;;;;4984875;28;20103;-83
2022/01/10 04:57:14;;;;;;;30.30;12.50;;;1.50;93.80;;;;;;5001897;28;20522;-81
2022/01/10 04:59:39;;;;;;;21.33;9.93;;;1.50;93.80;;;;;;5003735;28;20038;-81
2022/01/10 05:02:05;;;;;;;15.93;7.47;;;1.50;93.90;;;;;;5006428;28;20034;-80
2022/01/10 05:04:30;;;;;;;10.98;6.30;;;1.50;93.80;;;;;;5009317;28;20058;-81
2022/01/10 05:06:56;;;;;;;10.32;6.88;;;1.50;93.90;;;;;;5006906;28;20033;-82
2022/01/10 05:09:21;;;;;;;10.45;6.05;;;1.50;93.90;;;;;;4998792;28;20048;-82
2022/01/10 05:11:47;;;;;;;6.38;4.35;;;1.50;93.90;;;;;;5002907;28;20034;-81
2022/01/10 05:14:13;;;;;;;7.38;4.25;;;1.50;93.90;;;;;;5005844;28;20057;-81
2022/01/10 05:16:40;;;;;;;5.68;4.20;;;1.50;93.90;;;;;;5002096;28;20041;-82
2022/01/10 05:19:06;;;;;;;7.35;4.13;;;1.50;93.90;;;;;;5007326;28;20508;-81
2022/01/10 05:21:31;;;;;;;5.53;3.90;;;1.50;93.90;;;;;;5001512;28;20549;-82
2022/01/10 05:23:57;;;;;;;5.75;3.50;;;1.50;93.90;;;;;;4996380;28;20924;-82
2022/01/10 05:26:22;;;;;;;11.90;6.40;;;1.50;93.90;;;;;;4994103;28;20033;-82
2022/01/10 05:28:48;;;;;;;8.02;4.90;;;1.50;93.90;;;;;;5002935;28;20034;-82
2022/01/10 05:31:14;;;;;;;6.00;4.43;;;1.50;93.90;;;;;;4986650;28;20056;-82
2022/01/10 05:33:39;;;;;;;7.43;5.03;;;1.50;93.90;;;;;;5005440;28;20050;-81
2022/01/10 05:36:05;;;;;;;7.72;5.03;;;1.50;93.90;;;;;;4988085;28;20037;-81
2022/01/10 05:38:30;;;;;;;9.90;5.25;;;1.50;93.90;;;;;;4986782;28;20046;-81
2022/01/10 05:40:56;;;;;;;8.60;4.93;;;1.50;93.90;;;;;;4990998;28;20095;-81
2022/01/10 05:43:21;;;;;;;8.90;5.38;;;1.50;94.20;;;;;;5001332;28;20030;-81
2022/01/10 05:45:47;;;;;;;18.48;5.88;;;1.50;93.90;;;;;;4974854;28;20113;-81
2022/01/10 05:48:20;;;;;;;8.77;5.40;;;1.50;93.90;;;;;;4989535;28;20060;-81
2022/01/10 05:50:45;;;;;;;10.18;5.38;;;1.50;93.90;;;;;;5009445;28;20124;-81
2022/01/10 05:53:11;;;;;;;12.73;5.65;;;1.50;93.90;;;;;;5003286;28;20463;-81
2022/01/10 05:55:37;;;;;;;13.00;6.95;;;1.50;93.90;;;;;;5011147;28;20569;-81
2022/01/10 05:58:04;;;;;;;9.70;6.15;;;1.50;93.90;;;;;;5005174;28;20030;-81
2022/01/10 06:00:29;;;;;;;8.93;5.50;;;1.50;93.90;;;;;;4990684;28;20034;-81
2022/01/10 06:02:55;;;;;;;7.60;4.88;;;1.50;93.90;;;;;;4994545;28;20049;-81
2022/01/10 06:05:21;;;;;;;12.82;5.95;;;1.50;93.90;;;;;;5008208;28;20033;-81
2022/01/10 06:07:46;;;;;;;11.60;6.50;;;1.50;93.90;;;;;;5015755;28;20061;-81
2022/01/10 06:10:12;;;;;;;9.63;5.70;;;1.50;93.90;;;;;;4996347;28;20041;-81
2022/01/10 06:12:37;;;;;;;9.35;5.10;;;1.50;93.90;;;;;;5004000;28;20041;-81
2022/01/10 06:15:03;;;;;;;8.95;5.93;;;1.50;93.90;;;;;;4994709;28;20034;-81
2022/01/10 06:17:29;;;;;;;9.80;5.47;;;1.50;94.00;;;;;;4989381;28;20033;-81
2022/01/10 06:19:54;;;;;;;11.23;6.00;;;1.50;93.90;;;;;;4990583;28;20056;-81
2022/01/10 06:22:20;;;;;;;9.85;6.72;;;1.50;93.90;;;;;;4994830;28;20104;-81
2022/01/10 06:24:45;;;;;;;16.85;7.38;;;1.50;93.90;;;;;;5008129;28;20033;-82
2022/01/10 06:27:11;;;;;;;10.20;6.13;;;1.50;93.90;;;;;;5015915;28;20042;-82
2022/01/10 06:29:36;;;;;;;12.00;6.00;;;1.50;93.90;;;;;;4991405;28;20045;-81
2022/01/10 06:32:02;;;;;;;11.38;5.90;;;1.50;93.90;;;;;;4992276;28;20042;-82
2022/01/10 06:34:28;;;;;;;11.88;6.20;;;1.50;93.90;;;;;;5027451;28;20109;-82
2022/01/10 06:36:53;;;;;;;14.35;6.43;;;1.50;93.90;;;;;;4994412;28;20030;-81
2022/01/10 06:39:19;;;;;;;9.25;5.97;;;1.50;93.90;;;;;;5013341;28;20057;-81
2022/01/10 06:41:44;;;;;;;14.25;7.53;;;1.50;93.90;;;;;;5014018;28;20021;-81
2022/01/10 06:44:10;;;;;;;23.38;8.20;;;1.50;93.90;;;;;;4973160;28;20080;-81
2022/01/10 06:46:35;;;;;;;33.25;7.75;;;1.50;93.90;;;;;;4983390;28;20050;-81
2022/01/10 06:49:01;;;;;;;20.55;6.32;;;1.50;93.90;;;;;;5007262;28;20046;-81
2022/01/10 06:51:26;;;;;;;34.72;7.38;;;1.50;93.90;;;;;;4991962;28;20052;-81
2022/01/10 06:53:52;;;;;;;24.02;7.05;;;1.50;93.90;;;;;;4984917;28;20191;-81
2022/01/10 06:56:17;;;;;;;13.90;6.30;;;1.40;93.90;;;;;;4992282;28;20105;-81
2022/01/10 06:58:43;;;;;;;21.92;6.90;;;1.40;93.90;;;;;;5009260;28;20431;-81
2022/01/10 07:01:08;;;;;;;21.38;6.05;;;1.40;93.90;;;;;;5009684;28;20033;-81
2022/01/10 07:03:34;;;;;;;11.77;5.88;;;1.40;93.90;;;;;;5011217;28;20040;-81
2022/01/10 07:05:59;;;;;;;21.00;6.63;;;1.40;93.90;;;;;;5000618;28;20038;-81
2022/01/10 07:08:25;;;;;;;9.15;5.57;;;1.40;93.90;;;;;;4989350;28;20027;-81
2022/01/10 07:10:51;;;;;;;25.42;6.75;;;1.40;93.90;;;;;;4999630;28;20044;-81
2022/01/10 07:13:16;;;;;;;17.13;6.22;;;1.40;93.90;;;;;;4993485;28;20022;-81
2022/01/10 07:15:42;;;;;;;12.18;6.07;;;1.30;93.90;;;;;;5008753;28;20053;-81
2022/01/10 07:18:07;;;;;;;44.60;8.18;;;1.40;93.90;;;;;;5002081;28;20042;-81
2022/01/10 07:20:33;;;;;;;66.88;11.55;;;1.40;93.90;;;;;;5027080;28;20048;-80
2022/01/10 07:22:58;;;;;;;45.85;10.82;;;1.40;93.90;;;;;;4996363;28;20120;-81
2022/01/10 07:25:24;;;;;;;29.63;8.77;;;1.40;93.90;;;;;;4978101;28;20038;-82
2022/01/10 07:27:50;;;;;;;18.30;7.38;;;1.30;93.90;;;;;;5006958;28;20447;-81
2022/01/10 07:30:15;;;;;;;25.90;6.95;;;1.30;93.90;;;;;;4998978;28;20130;-82
2022/01/10 07:32:40;;;;;;;22.27;6.68;;;1.30;93.90;;;;;;4956605;28;20121;-82
2022/01/10 07:35:06;;;;;;;23.35;6.57;;;1.30;93.90;;;;;;4961147;28;20045;-81
2022/01/10 07:37:32;;;;;;;37.35;8.13;;;1.30;93.90;;;;;;4990125;28;20471;-81
2022/01/10 07:39:58;;;;;;;35.53;6.97;;;1.30;94.30;;;;;;4961534;28;20142;-81
2022/01/10 07:42:23;;;;;;;23.35;6.97;;;1.40;94.00;;;;;;4979441;28;20507;-81
2022/01/10 07:44:49;;;;;;;14.23;6.55;;;1.40;94.00;;;;;;4987642;28;20707;-82
2022/01/10 07:47:14;;;;;;;56.03;8.45;;;1.40;94.00;;;;;;4948157;28;20529;-81
2022/01/10 07:49:40;;;;;;;78.22;9.77;;;1.40;94.00;;;;;;4987260;28;20092;-81
2022/01/10 07:52:05;;;;;;;79.07;9.52;;;1.40;94.00;;;;;;4981218;28;20110;-81
2022/01/10 07:54:31;;;;;;;55.38;9.52;;;1.40;94.00;;;;;;4949296;28;20437;-81
2022/01/10 07:56:58;;;;;;;41.33;9.43;;;1.30;94.00;;;;;;4976790;28;20030;-81
2022/01/10 07:59:24;;;;;;;42.40;10.10;;;1.30;94.00;;;;;;4986317;28;20061;-81
2022/01/10 08:01:50;;;;;;;49.35;11.50;;;1.30;94.00;;;;;;4983519;28;20060;-81
2022/01/10 08:04:15;;;;;;;25.73;8.30;;;1.30;94.00;;;;;;4987230;28;20088;-81
2022/01/10 08:06:41;;;;;;;24.50;8.25;;;1.30;94.00;;;;;;4954490;28;20542;-81
2022/01/10 08:09:06;;;;;;;37.75;11.02;;;1.30;94.00;;;;;;4975099;28;20051;-81
2022/01/10 08:11:33;;;;;;;17.40;9.35;;;1.30;94.00;;;;;;4985548;28;20541;-81
2022/01/10 08:13:58;;;;;;;44.13;11.95;;;1.30;94.00;;;;;;4985554;28;20555;-81
2022/01/10 08:16:24;;;;;;;30.33;10.15;;;1.30;94.00;;;;;;4987442;28;20125;-81
2022/01/10 08:18:49;;;;;;;19.33;9.63;;;1.30;94.00;;;;;;4956448;28;20097;-80
2022/01/10 08:21:15;;;;;;;23.00;11.07;;;1.30;94.00;;;;;;4983972;28;20039;-81
2022/01/10 08:23:40;;;;;;;22.88;9.80;;;1.30;94.00;;;;;;4970327;28;20038;-81
2022/01/10 08:26:08;;;;;;;17.10;8.27;;;1.30;94.00;;;;;;4962133;28;20080;-80
2022/01/10 08:28:37;;;;;;;14.55;7.95;;;1.30;94.00;;;;;;4969106;28;20033;-81
2022/01/10 08:31:03;;;;;;;14.15;7.47;;;1.20;94.00;;;;;;4989688;28;20113;-81
2022/01/10 08:33:28;;;;;;;16.65;7.78;;;1.20;94.00;;;;;;4978121;28;20061;-80
2022/01/10 08:35:54;;;;;;;18.20;9.45;;;1.20;93.90;;;;;;4973641;28;20042;-81
2022/01/10 08:38:20;;;;;;;15.88;8.93;;;1.20;94.00;;;;;;4996543;28;20033;-81
2022/01/10 08:40:45;;;;;;;15.52;8.35;;;1.20;94.00;;;;;;4986465;28;20045;-80
2022/01/10 08:43:11;;;;;;;15.50;8.48;;;1.30;94.00;;;;;;4990974;28;20034;-80
2022/01/10 08:45:37;;;;;;;21.95;11.15;;;1.30;94.00;;;;;;5006008;28;20033;-81
2022/01/10 08:48:04;;;;;;;15.65;9.52;;;1.30;94.40;;;;;;4961201;28;20549;-80
2022/01/10 08:50:30;;;;;;;19.02;10.15;;;1.30;94.00;;;;;;5014614;28;20038;-81
2022/01/10 08:52:55;;;;;;;15.77;9.18;;;1.30;94.00;;;;;;5012777;28;20034;-81
2022/01/10 08:55:21;;;;;;;13.73;9.55;;;1.40;94.10;;;;;;5008485;28;20128;-81
2022/01/10 08:57:46;;;;;;;14.57;8.75;;;1.40;94.10;;;;;;5001015;28;20124;-81
2022/01/10 09:00:13;;;;;;;13.98;8.82;;;1.50;94.10;;;;;;5013739;28;20138;-80
2022/01/10 09:02:39;;;;;;;17.85;10.68;;;1.60;94.20;;;;;;5001710;28;20293;-81
2022/01/10 09:05:05;;;;;;;16.98;11.70;;;1.60;94.20;;;;;;5007934;28;20034;-80
2022/01/10 09:07:30;;;;;;;23.60;11.68;;;1.70;94.20;;;;;;5005723;28;20026;-81
2022/01/10 09:09:56;;;;;;;30.27;11.02;;;1.70;94.20;;;;;;5011353;28;20503;-81
2022/01/10 09:12:21;;;;;;;27.02;12.40;;;1.80;94.20;;;;;;4974513;28;20037;-81
2022/01/10 09:14:47;;;;;;;32.45;10.65;;;1.80;94.20;;;;;;4991947;28;20132;-81
2022/01/10 09:17:13;;;;;;;20.38;9.23;;;1.90;94.20;;;;;;4991633;28;20034;-81
2022/01/10 09:19:39;;;;;;;14.07;9.13;;;1.90;94.20;;;;;;5008057;28;20057;-81
2022/01/10 09:22:04;;;;;;;35.05;10.93;;;2.00;94.30;;;;;;5009261;28;20038;-81
2022/01/10 09:24:30;;;;;;;35.88;10.75;;;2.00;94.30;;;;;;4985457;28;20022;-81
2022/01/10 09:26:56;;;;;;;15.57;9.65;;;2.10;94.30;;;;;;5008235;28;20520;-81
2022/01/10 09:29:23;;;;;;;20.67;9.95;;;2.10;94.30;;;;;;4990034;28;20105;-81
2022/01/10 09:31:48;;;;;;;12.70;9.02;;;2.20;94.30;;;;;;4977076;28;20031;-81
2022/01/10 09:34:14;;;;;;;14.65;9.32;;;2.20;94.30;;;;;;5000501;28;20151;-81
2022/01/10 09:36:39;;;;;;;11.82;9.13;;;2.20;94.20;;;;;;5001701;28;20050;-82
2022/01/10 09:39:05;;;;;;;12.15;9.20;;;2.20;94.20;;;;;;4965339;28;20518;-81
2022/01/10 09:41:31;;;;;;;18.90;12.90;;;2.30;94.30;;;;;;4992771;28;20438;-81
2022/01/10 09:44:00;;;;;;;22.48;14.50;;;2.30;94.20;;;;;;5011179;28;20492;-81
2022/01/10 09:46:25;;;;;;;21.60;14.35;;;2.30;94.10;;;;;;5009351;28;20036;-82
2022/01/10 09:48:52;;;;;;;75.95;48.17;;;2.30;94.10;;;;;;4997623;28;20019;-81
2022/01/10 09:51:17;;;;;;;27.52;19.67;;;2.30;94.10;;;;;;4995254;28;20034;-82
2022/01/10 09:53:43;;;;;;;41.97;27.60;;;2.30;94.10;;;;;;4963140;28;20038;-81
2022/01/10 09:56:08;;;;;;;22.10;15.48;;;2.40;94.20;;;;;;4996776;28;20042;-82
2022/01/10 09:58:34;;;;;;;18.50;12.15;;;2.40;94.20;;;;;;4987702;28;20041;-82
2022/01/10 10:01:00;;;;;;;20.42;13.77;;;2.40;94.20;;;;;;4962210;28;20459;-81
2022/01/10 10:03:25;;;;;;;23.13;13.93;;;2.50;94.20;;;;;;4971049;28;20066;-82
2022/01/10 10:05:55;;;;;;;24.92;15.75;;;2.50;94.20;;;;;;4993651;28;20195;-82
2022/01/10 10:08:21;;;;;;;24.75;13.80;;;2.60;94.30;;;;;;4979679;28;20085;-82
2022/01/10 10:10:47;;;;;;;24.17;14.45;;;2.60;94.20;;;;;;4989173;28;20411;-82
2022/01/10 10:13:14;;;;;;;24.83;15.48;;;2.70;94.30;;;;;;4968709;28;20084;-81
2022/01/10 10:15:40;;;;;;;22.20;12.63;;;2.70;94.20;;;;;;4979885;28;20045;-81
2022/01/10 10:18:08;;;;;;;16.73;9.65;;;2.70;94.20;;;;;;4955129;28;20034;-82
2022/01/10 10:20:34;;;;;;;15.52;8.05;;;2.80;94.60;;;;;;5001247;28;20061;-81
2022/01/10 10:22:59;;;;;;;14.63;9.77;;;2.80;94.20;;;;;;5000463;28;20050;-82
2022/01/10 10:25:25;;;;;;;18.30;10.02;;;2.80;94.10;;;;;;4965321;28;20547;-82
2022/01/10 10:27:50;;;;;;;15.77;10.88;;;2.80;94.10;;;;;;4985930;28;20034;-82
2022/01/10 10:30:21;;;;;;;21.15;10.05;;;2.90;94.20;;;;;;5002176;28;20122;-82
2022/01/10 10:32:47;;;;;;;15.37;9.00;;;2.90;94.10;;;;;;4939678;28;20034;-82
2022/01/10 10:35:13;;;;;;;16.00;9.98;;;2.90;94.10;;;;;;4978579;28;20405;-82
2022/01/10 10:37:40;;;;;;;18.75;8.80;;;2.90;94.10;;;;;;4978863;28;20609;-82
2022/01/10 10:40:09;;;;;;;22.73;9.77;;;3.00;94.10;;;;;;5006303;28;20037;-82
2022/01/10 10:42:34;;;;;;;20.77;10.65;;;3.00;94.10;;;;;;4986993;28;20124;-81
2022/01/10 10:45:04;;;;;;;22.48;10.02;;;3.10;94.10;;;;;;4991344;28;20164;-81
2022/01/10 10:47:30;;;;;;;18.50;11.50;;;3.10;94.10;;;;;;4971504;28;20385;-82
2022/01/10 10:49:58;;;;;;;14.10;9.40;;;3.20;94.10;;;;;;5000510;28;20550;-82
2022/01/10 10:52:32;;;;;;;15.02;10.23;;;3.30;94.10;;;;;;4960314;28;20060;-82
2022/01/10 10:55:14;;;;;;;17.67;9.50;;;3.40;94.10;;;;;;4987865;28;20042;-82
2022/01/10 10:57:43;;;;;;;16.65;9.65;;;3.50;94.10;;;;;;4936683;28;20049;-82
2022/01/10 11:00:12;;;;;;;19.50;9.50;;;3.50;94.10;;;;;;4997270;28;20073;-81
2022/01/10 11:02:38;;;;;;;15.45;9.52;;;3.60;94.10;;;;;;4993864;28;20130;-82
2022/01/10 11:05:06;;;;;;;17.38;9.55;;;3.70;94.10;;;;;;5008970;28;20040;-82
2022/01/10 11:07:33;;;;;;;17.10;8.95;;;3.70;94.00;;;;;;5005168;28;20406;-83
2022/01/10 11:09:59;;;;;;;18.15;9.98;;;3.80;94.00;;;;;;4990209;28;20405;-82
2022/01/10 11:12:25;;;;;;;18.15;10.00;;;3.80;94.00;;;;;;4995868;28;20064;-81
2022/01/10 11:14:52;;;;;;;20.42;8.90;;;3.90;94.00;;;;;;4996841;28;20831;-82
2022/01/10 11:17:19;;;;;;;24.55;9.15;;;3.90;94.00;;;;;;5014218;28;20029;-82
2022/01/10 11:19:44;;;;;;;13.63;9.10;;;4.00;94.00;;;;;;4990236;28;20045;-82
2022/01/10 11:22:11;;;;;;;16.63;9.27;;;4.00;93.90;;;;;;4980877;28;20112;-82
2022/01/10 11:24:48;;;;;;;18.73;9.73;;;4.00;93.90;;;;;;5007548;28;20034;-82
2022/01/10 11:27:33;;;;;;;128.73;43.58;;;4.10;93.90;;;;;;4973168;28;20065;-82
2022/01/10 11:30:00;;;;;;;15.25;9.07;;;4.10;93.90;;;;;;4980533;28;20092;-82
2022/01/10 11:33:03;;;;;;;11.80;8.40;;;4.20;93.90;;;;;;4993217;28;20496;-82
2022/01/10 11:35:33;;;;;;;16.35;8.55;;;4.20;93.80;;;;;;5019848;28;20073;-82
2022/01/10 11:37:59;;;;;;;18.48;9.20;;;4.30;93.80;;;;;;5011571;28;20056;-82
2022/01/10 11:40:25;;;;;;;14.85;9.05;;;4.30;93.80;;;;;;5004254;28;20033;-82
2022/01/10 11:42:56;;;;;;;10.40;7.07;;;4.40;94.10;;;;;;4976996;28;20057;-82
2022/01/10 11:45:21;;;;;;;16.42;7.18;;;4.40;93.70;;;;;;4975532;28;20049;-82
2022/01/10 11:48:02;;;;;;;12.18;6.85;;;4.50;93.70;;;;;;4972040;28;20033;-82
2022/01/10 11:50:30;;;;;;;14.80;7.43;;;4.50;93.70;;;;;;5012925;28;20064;-83
2022/01/10 11:52:57;;;;;;;12.98;7.00;;;4.50;93.70;;;;;;5000294;28;20076;-82
2022/01/10 11:55:31;;;;;;;17.30;8.95;;;4.60;93.70;;;;;;5005319;28;20504;-82
2022/01/10 11:58:05;;;;;;;13.57;8.25;;;4.60;93.60;;;;;;5000007;28;20549;-82
2022/01/10 12:00:36;;;;;;;16.17;8.75;;;4.70;93.60;;;;;;4995748;28;20543;-83
2022/01/10 12:03:01;;;;;;;12.60;8.50;;;4.70;93.60;;;;;;4979129;28;20169;-82
2022/01/10 12:05:27;;;;;;;14.70;9.10;;;4.80;93.60;;;;;;5010657;28;20386;-83
2022/01/10 12:07:52;;;;;;;14.95;8.35;;;4.80;93.50;;;;;;4999005;28;20034;-83
2022/01/10 12:10:18;;;;;;;12.30;8.40;;;4.80;93.50;;;;;;4977938;28;20045;-83
2022/01/10 12:12:44;;;;;;;15.52;8.18;;;4.90;93.50;;;;;;5009511;28;20116;-83
2022/01/10 12:15:10;;;;;;;17.90;9.45;;;4.90;93.50;;;;;;5005957;28;20156;-82
2022/01/10 12:17:37;;;;;;;19.95;9.45;;;4.90;93.50;;;;;;5001979;28;20469;-82
2022/01/10 12:20:06;;;;;;;15.40;8.20;;;5.00;93.50;;;;;;5010604;28;20057;-83
2022/01/10 12:22:31;;;;;;;12.13;7.85;;;5.00;93.40;;;;;;5027304;28;20037;-82
2022/01/10 12:24:57;;;;;;;15.63;7.90;;;5.10;93.40;;;;;;4993313;28;20044;-83
2022/01/10 12:27:22;;;;;;;16.70;9.13;;;5.10;93.30;;;;;;5004224;28;20033;-82
2022/01/10 12:29:48;;;;;;;17.40;9.07;;;5.10;93.30;;;;;;4983895;28;20042;-83
2022/01/10 12:32:13;;;;;;;12.52;7.70;;;5.20;93.30;;;;;;4975669;28;20034;-82
2022/01/10 12:34:41;;;;;;;13.15;8.23;;;5.20;93.30;;;;;;4991837;28;20435;-82
2022/01/10 12:37:06;;;;;;;13.43;8.65;;;5.20;93.20;;;;;;4968070;28;20034;-83
2022/01/10 12:39:34;;;;;;;14.75;7.82;;;5.30;93.30;;;;;;5021077;28;20034;-83
2022/01/10 12:41:59;;;;;;;16.40;7.53;;;5.30;93.20;;;;;;5009772;28;20037;-83
2022/01/10 12:44:28;;;;;;;12.13;7.30;;;5.40;93.20;;;;;;5004693;28;20106;-82
2022/01/10 12:46:53;;;;;;;13.25;7.88;;;5.40;93.20;;;;;;5025728;28;20064;-82
2022/01/10 12:49:19;;;;;;;14.13;7.40;;;5.40;93.20;;;;;;4993064;28;20041;-82
2022/01/10 12:51:55;;;;;;;13.00;7.75;;;5.50;93.20;;;;;;5010377;28;20168;-83
2022/01/10 12:54:22;;;;;;;11.00;6.60;;;5.50;93.10;;;;;;4998811;28;20048;-82
2022/01/10 12:56:48;;;;;;;14.07;7.05;;;5.60;93.10;;;;;;4977568;28;20146;-83